Time;durP1;ratioP1;P1;durP2;ratioP2;P2;SDS_P1;SDS_P2;PMS_P1;PMS_P2;Temp;Humidity;BMP_temperature;BMP_pressure;BME280_temperature;BME280_humidity;BME280_pressure;Samples;Min_cycle;Max_cycle;Signal;HPM_P1;HPM_P2
2022/03/21 00:01:21;;;;;;;32.33;22.42;;;14.90;70.20;;;;;;5087917;28;20625;-51
2022/03/21 00:03:46;;;;;;;29.60;20.90;;;14.80;70.20;;;;;;5066506;28;20505;-55
2022/03/21 00:06:12;;;;;;;33.65;22.75;;;14.80;70.30;;;;;;5087314;28;20051;-52
2022/03/21 00:08:38;;;;;;;28.58;20.58;;;14.80;70.30;;;;;;5091749;28;20420;-56
2022/03/21 00:11:04;;;;;;;29.23;20.80;;;14.80;70.30;;;;;;5091680;28;20024;-54
2022/03/21 00:13:30;;;;;;;28.63;21.00;;;14.80;70.40;;;;;;5091767;28;20125;-54
2022/03/21 00:15:57;;;;;;;32.10;21.17;;;14.80;71.10;;;;;;5092114;28;20027;-52
2022/03/21 00:18:25;;;;;;;28.95;21.00;;;14.80;70.50;;;;;;5092024;28;20020;-50
2022/03/21 00:20:53;;;;;;;30.25;20.65;;;14.70;70.40;;;;;;5090514;28;20470;-54
2022/03/21 00:23:19;;;;;;;33.60;21.20;;;14.70;70.40;;;;;;5091696;28;20490;-54
2022/03/21 00:25:45;;;;;;;31.00;20.95;;;14.70;70.40;;;;;;5090946;28;20067;-55
2022/03/21 00:28:12;;;;;;;28.52;19.38;;;14.70;70.40;;;;;;5091637;28;20320;-54
2022/03/21 00:30:39;;;;;;;29.48;19.80;;;14.70;70.60;;;;;;5091419;28;20070;-54
2022/03/21 00:33:06;;;;;;;30.92;21.55;;;14.70;70.50;;;;;;5091491;28;20031;-54
2022/03/21 00:35:32;;;;;;;30.17;19.50;;;14.60;70.50;;;;;;5091630;28;20440;-55
2022/03/21 00:37:58;;;;;;;27.17;19.30;;;14.60;70.50;;;;;;5091948;28;20533;-52
2022/03/21 00:40:24;;;;;;;29.77;20.63;;;14.60;70.50;;;;;;5090821;28;20023;-54
2022/03/21 00:42:51;;;;;;;30.60;20.52;;;14.60;70.40;;;;;;5091342;28;20024;-56
2022/03/21 00:45:21;;;;;;;31.33;21.25;;;14.60;70.60;;;;;;5090897;28;20028;-54
2022/03/21 00:47:49;;;;;;;25.60;20.40;;;14.50;70.60;;;;;;5091085;28;20038;-54
2022/03/21 00:50:17;;;;;;;26.83;20.08;;;14.60;70.70;;;;;;5090854;28;20413;-51
2022/03/21 00:52:45;;;;;;;30.10;19.50;;;14.50;70.60;;;;;;5091080;28;20073;-55
2022/03/21 00:55:12;;;;;;;27.52;19.70;;;14.50;70.60;;;;;;5091080;28;20079;-53
2022/03/21 00:57:40;;;;;;;28.80;19.08;;;14.50;71.20;;;;;;5091449;28;20028;-53
2022/03/21 01:00:08;;;;;;;27.15;19.65;;;14.50;70.50;;;;;;5090466;28;20055;-49
2022/03/21 01:02:37;;;;;;;26.73;20.45;;;14.50;70.60;;;;;;5090838;28;20073;-50
2022/03/21 01:05:04;;;;;;;27.50;19.60;;;14.50;70.60;;;;;;5090310;28;20458;-49
2022/03/21 01:07:30;;;;;;;24.73;19.13;;;14.40;70.70;;;;;;5091233;28;20099;-54
2022/03/21 01:09:55;;;;;;;30.08;19.73;;;14.40;70.70;;;;;;5090790;28;20024;-55
2022/03/21 01:12:21;;;;;;;25.13;19.05;;;14.40;70.70;;;;;;5090420;28;20027;-54
2022/03/21 01:14:47;;;;;;;29.08;18.98;;;14.40;70.60;;;;;;5090383;28;20024;-50
2022/03/21 01:17:13;;;;;;;29.23;19.60;;;14.40;70.70;;;;;;5090377;28;20024;-54
2022/03/21 01:19:38;;;;;;;25.05;19.25;;;14.40;70.70;;;;;;5090766;28;20103;-52
2022/03/21 01:22:06;;;;;;;25.42;19.17;;;14.40;70.80;;;;;;5090168;28;20016;-52
2022/03/21 01:24:32;;;;;;;26.50;19.80;;;14.40;70.70;;;;;;5090498;28;20024;-54
2022/03/21 01:26:57;;;;;;;26.75;18.52;;;14.40;70.70;;;;;;5090515;28;20040;-54
2022/03/21 01:29:23;;;;;;;25.55;18.38;;;14.40;70.70;;;;;;5090533;28;20081;-54
2022/03/21 01:31:48;;;;;;;26.02;19.30;;;14.40;70.70;;;;;;5090179;28;20469;-51
2022/03/21 01:34:14;;;;;;;27.83;19.08;;;14.40;70.60;;;;;;5090584;28;20506;-53
2022/03/21 01:36:40;;;;;;;26.20;18.17;;;14.30;70.70;;;;;;5090529;28;20123;-50
2022/03/21 01:39:05;;;;;;;27.92;19.52;;;14.30;70.70;;;;;;5090331;28;20438;-52
2022/03/21 01:41:31;;;;;;;27.73;19.48;;;14.30;70.70;;;;;;5089743;28;20073;-52
2022/03/21 01:44:03;;;;;;;26.38;19.15;;;14.30;70.90;;;;;;5090084;28;20042;-55
2022/03/21 01:46:29;;;;;;;28.80;18.75;;;14.30;70.80;;;;;;5089656;28;20163;-55
2022/03/21 01:48:55;;;;;;;24.48;18.33;;;14.30;70.80;;;;;;5086342;28;20544;-54
2022/03/21 01:51:23;;;;;;;25.38;19.20;;;14.30;70.80;;;;;;5090413;28;20031;-56
2022/03/21 01:56:33;;;;;;;25.38;19.10;;;14.20;70.80;;;;;;5089735;28;20127;-52
2022/03/21 01:58:59;;;;;;;24.38;18.30;;;14.20;70.80;;;;;;5089725;28;20371;-51
2022/03/21 02:01:25;;;;;;;22.88;18.05;;;14.20;70.80;;;;;;5089807;28;20024;-52
2022/03/21 02:03:52;;;;;;;24.92;18.80;;;14.20;70.80;;;;;;5089354;28;20020;-53
2022/03/21 02:06:17;;;;;;;25.08;18.52;;;14.20;70.70;;;;;;5089389;28;20077;-54
2022/03/21 02:08:44;;;;;;;26.15;18.90;;;14.20;70.90;;;;;;5089664;28;20020;-51
2022/03/21 02:11:10;;;;;;;24.98;18.73;;;14.20;70.80;;;;;;5089668;28;20464;-54
2022/03/21 02:13:36;;;;;;;24.33;18.90;;;14.10;70.80;;;;;;5089433;28;20024;-54
2022/03/21 02:16:04;;;;;;;24.40;18.88;;;14.10;70.80;;;;;;5089516;28;20032;-55
2022/03/21 02:18:31;;;;;;;22.33;18.65;;;14.10;70.80;;;;;;5088992;28;20027;-55
2022/03/21 02:21:00;;;;;;;24.70;17.92;;;14.10;70.80;;;;;;5090010;28;20031;-55
2022/03/21 02:23:52;;;;;;;21.98;17.25;;;14.10;70.80;;;;;;5089394;28;20105;-55
2022/03/21 02:26:19;;;;;;;22.92;18.23;;;14.10;70.80;;;;;;5088822;28;20072;-54
2022/03/21 02:28:47;;;;;;;22.48;16.95;;;14.10;70.90;;;;;;5088443;28;20024;-55
2022/03/21 02:31:14;;;;;;;25.85;18.80;;;14.10;70.80;;;;;;5089038;28;20692;-51
2022/03/21 02:33:40;;;;;;;23.55;18.10;;;14.00;70.80;;;;;;5088812;28;20017;-55
2022/03/21 02:36:07;;;;;;;21.95;17.63;;;14.10;70.80;;;;;;5088905;28;20100;-53
2022/03/21 02:38:35;;;;;;;28.35;19.58;;;14.00;70.90;;;;;;5089100;28;20051;-52
2022/03/21 02:41:02;;;;;;;24.33;18.05;;;14.00;70.80;;;;;;5089261;28;20038;-50
2022/03/21 02:43:27;;;;;;;22.25;17.70;;;14.00;70.80;;;;;;5088851;28;20462;-52
2022/03/21 02:46:03;;;;;;;26.35;17.83;;;14.00;70.80;;;;;;5088725;28;20016;-52
2022/03/21 02:48:29;;;;;;;23.95;17.85;;;14.00;70.80;;;;;;5088700;28;20058;-55
2022/03/21 02:51:01;;;;;;;22.00;16.90;;;14.00;70.90;;;;;;5088860;28;20885;-53
2022/03/21 02:53:29;;;;;;;24.50;18.17;;;14.00;70.80;;;;;;5088964;28;20043;-52
2022/03/21 02:55:56;;;;;;;21.85;17.65;;;14.00;70.80;;;;;;5088809;28;20814;-52
2022/03/21 02:58:22;;;;;;;23.55;17.75;;;14.00;70.90;;;;;;5088672;28;20051;-53
2022/03/21 03:00:48;;;;;;;22.05;16.48;;;13.90;70.80;;;;;;5088322;28;20450;-51
2022/03/21 03:03:14;;;;;;;21.27;16.60;;;13.90;70.80;;;;;;5088441;28;20059;-54
2022/03/21 03:05:40;;;;;;;21.77;17.63;;;13.90;70.90;;;;;;5088360;28;20047;-53
2022/03/21 03:08:05;;;;;;;24.02;17.15;;;13.90;70.90;;;;;;5088777;28;20043;-55
2022/03/21 03:10:31;;;;;;;24.98;18.73;;;13.90;70.90;;;;;;5088486;28;20504;-55
2022/03/21 03:12:57;;;;;;;22.35;17.17;;;13.90;71.00;;;;;;5088592;28;20435;-54
2022/03/21 03:15:23;;;;;;;20.63;17.33;;;13.90;71.00;;;;;;5088254;28;20446;-54
2022/03/21 03:17:48;;;;;;;22.75;16.08;;;13.80;70.90;;;;;;5088862;28;20055;-55
2022/03/21 03:20:15;;;;;;;20.52;16.65;;;13.80;70.90;;;;;;5088217;28;20490;-51
2022/03/21 03:22:41;;;;;;;22.10;16.67;;;13.80;70.80;;;;;;5088118;28;20081;-53
2022/03/21 03:25:07;;;;;;;22.67;16.98;;;13.80;71.20;;;;;;5088350;28;20074;-55
2022/03/21 03:27:33;;;;;;;20.38;15.80;;;13.80;71.00;;;;;;5088068;28;20065;-49
2022/03/21 03:30:01;;;;;;;21.45;16.20;;;13.80;70.90;;;;;;5088263;28;20016;-52
2022/03/21 03:32:27;;;;;;;22.20;17.05;;;13.80;70.90;;;;;;5088095;28;20447;-49
2022/03/21 03:34:53;;;;;;;20.27;15.50;;;13.80;70.90;;;;;;5088879;28;20103;-52
2022/03/21 03:37:19;;;;;;;21.80;16.40;;;13.80;71.10;;;;;;5088067;28;20095;-49
2022/03/21 03:39:45;;;;;;;20.42;16.13;;;13.80;70.90;;;;;;5088445;28;20016;-48
2022/03/21 03:42:10;;;;;;;20.05;15.80;;;13.70;70.90;;;;;;5088097;28;20044;-52
2022/03/21 03:44:36;;;;;;;20.90;15.90;;;13.80;71.00;;;;;;5087840;28;20012;-52
2022/03/21 03:47:03;;;;;;;22.50;15.77;;;13.70;71.00;;;;;;5087467;28;20119;-52
2022/03/21 03:49:29;;;;;;;19.15;14.93;;;13.70;71.00;;;;;;5088440;28;20044;-53
2022/03/21 03:51:54;;;;;;;19.77;15.63;;;13.70;71.00;;;;;;5088115;28;20044;-50
2022/03/21 03:54:20;;;;;;;17.77;14.07;;;13.70;70.90;;;;;;5088671;28;20814;-51
2022/03/21 03:56:45;;;;;;;21.13;14.50;;;13.70;71.10;;;;;;5088093;28;20027;-58
2022/03/21 03:59:11;;;;;;;21.50;15.13;;;13.70;71.00;;;;;;5088254;28;20024;-50
2022/03/21 04:01:41;;;;;;;21.55;15.43;;;13.70;70.90;;;;;;5087546;28;20016;-48
2022/03/21 04:04:06;;;;;;;19.45;14.07;;;13.70;71.10;;;;;;5088328;28;20024;-54
2022/03/21 04:06:33;;;;;;;20.38;15.35;;;13.70;71.00;;;;;;5087822;28;20119;-55
2022/03/21 04:08:59;;;;;;;20.85;14.98;;;13.70;71.10;;;;;;5088103;28;20474;-56
2022/03/21 04:11:25;;;;;;;19.77;14.73;;;13.70;71.10;;;;;;5087497;28;20078;-55
2022/03/21 04:13:51;;;;;;;18.20;13.75;;;13.60;71.00;;;;;;5087406;28;20016;-54
2022/03/21 04:16:17;;;;;;;19.23;14.27;;;13.60;71.00;;;;;;5087904;28;20024;-55
2022/03/21 04:18:43;;;;;;;22.40;14.68;;;13.70;71.10;;;;;;5087717;28;20055;-55
2022/03/21 04:21:09;;;;;;;22.88;15.13;;;13.60;71.00;;;;;;5087937;28;20028;-55
2022/03/21 04:23:34;;;;;;;20.35;14.30;;;13.60;71.10;;;;;;5086864;28;20462;-55
2022/03/21 04:26:00;;;;;;;20.83;14.43;;;13.60;71.10;;;;;;5088034;28;20068;-54
2022/03/21 04:28:26;;;;;;;18.52;14.10;;;13.60;71.10;;;;;;5087788;28;20532;-56
2022/03/21 04:30:51;;;;;;;24.13;14.00;;;13.50;71.10;;;;;;5087083;28;20389;-50
2022/03/21 04:33:17;;;;;;;20.92;13.50;;;13.60;71.20;;;;;;5087070;28;20063;-49
2022/03/21 04:35:44;;;;;;;17.67;14.27;;;13.60;71.20;;;;;;5087915;28;20830;-56
2022/03/21 04:38:15;;;;;;;20.35;13.93;;;13.50;71.10;;;;;;5087359;28;20466;-55
2022/03/21 04:40:45;;;;;;;18.90;13.73;;;13.50;71.10;;;;;;5087509;28;20050;-53
2022/03/21 04:43:11;;;;;;;;;;;13.50;71.20;;;;;;5088125;28;20035;-55
2022/03/21 04:45:37;;;;;;;19.00;12.95;;;13.50;71.10;;;;;;5087435;28;19904;-55
2022/03/21 04:48:06;;;;;;;18.50;14.10;;;13.50;71.10;;;;;;5087116;28;20040;-55
2022/03/21 04:50:32;;;;;;;23.20;13.73;;;13.50;71.30;;;;;;5076495;28;20023;-55
2022/03/21 04:52:58;;;;;;;25.65;15.43;;;13.50;71.20;;;;;;5076085;28;20145;-54
2022/03/21 04:55:24;;;;;;;22.83;15.90;;;13.00;58.30;;;;;;5082161;28;20500;-54
2022/03/21 04:57:50;;;;;;;25.23;16.58;;;11.60;57.80;;;;;;5091035;28;20340;-55
2022/03/21 05:00:16;;;;;;;23.40;17.15;;;10.90;58.90;;;;;;5090845;28;20478;-55
2022/03/21 05:02:41;;;;;;;25.25;16.85;;;10.50;59.40;;;;;;5091143;28;20109;-55
2022/03/21 05:05:08;;;;;;;22.27;16.05;;;10.20;59.80;;;;;;5090602;28;20375;-55
2022/03/21 05:07:52;;;;;;;22.60;15.52;;;10.00;60.00;;;;;;5091062;28;20043;-56
2022/03/21 05:10:18;;;;;;;24.02;16.17;;;9.80;60.30;;;;;;5090359;28;20038;-54
2022/03/21 05:12:44;;;;;;;23.60;16.08;;;9.70;60.80;;;;;;5090593;28;20024;-54
2022/03/21 05:15:10;;;;;;;28.30;16.70;;;9.70;60.90;;;;;;5090532;28;20036;-54
2022/03/21 05:17:36;;;;;;;24.00;16.45;;;9.40;61.10;;;;;;5090577;28;20028;-55
2022/03/21 05:20:09;;;;;;;28.75;17.27;;;9.20;61.60;;;;;;5084143;28;20020;-55
2022/03/21 05:22:35;;;;;;;25.58;17.63;;;9.20;62.10;;;;;;5075000;28;20028;-53
2022/03/21 05:36:00;;;;;;;25.77;16.25;;;8.70;63.20;;;;;;5070949;28;20031;-50
2022/03/21 05:38:28;;;;;;;22.77;15.75;;;8.90;63.60;;;;;;5079601;28;20020;-54
2022/03/21 05:41:00;;;;;;;25.08;15.73;;;9.90;61.50;;;;;;5084225;28;20024;-54
2022/03/21 05:43:26;;;;;;;21.38;15.10;;;10.50;61.20;;;;;;5080336;28;20513;-55
2022/03/21 05:45:54;;;;;;;21.90;15.10;;;10.90;60.50;;;;;;5081161;28;20569;-54
2022/03/21 05:51:05;;;;;;;21.00;13.55;;;11.50;60.10;;;;;;5080494;28;20446;-55
2022/03/21 05:53:30;;;;;;;22.77;14.38;;;11.70;60.40;;;;;;5080353;28;20039;-50
2022/03/21 05:55:59;;;;;;;17.00;12.18;;;11.80;60.40;;;;;;5081505;28;20020;-51
2022/03/21 05:58:26;;;;;;;22.25;13.27;;;11.90;60.70;;;;;;5080303;28;20387;-49
2022/03/21 06:00:52;;;;;;;23.42;13.30;;;12.00;61.00;;;;;;5082980;28;20012;-54
2022/03/21 06:03:17;;;;;;;18.50;12.52;;;12.10;61.20;;;;;;5083667;28;20424;-53
2022/03/21 06:05:44;;;;;;;20.45;11.82;;;12.10;61.50;;;;;;5080163;28;20026;-52
2022/03/21 06:08:10;;;;;;;20.25;12.25;;;12.20;61.80;;;;;;5079237;28;20038;-48
2022/03/21 06:10:38;;;;;;;19.05;12.50;;;12.30;62.00;;;;;;5079574;28;20406;-53
2022/03/21 06:13:08;;;;;;;24.50;12.13;;;12.40;62.30;;;;;;5079663;28;20116;-54
2022/03/21 06:15:35;;;;;;;18.27;12.20;;;12.40;62.30;;;;;;5082578;28;20024;-53
2022/03/21 06:18:02;;;;;;;21.42;12.77;;;12.50;62.50;;;;;;5080020;28;20497;-55
2022/03/21 06:20:28;;;;;;;28.15;11.82;;;12.60;62.60;;;;;;5080680;28;20031;-55
2022/03/21 06:22:53;;;;;;;24.42;11.52;;;12.70;62.70;;;;;;5082962;28;20020;-56
2022/03/21 06:25:19;;;;;;;23.65;11.95;;;12.80;62.70;;;;;;5078067;28;20020;-48
2022/03/21 06:27:44;;;;;;;22.40;10.93;;;12.90;62.70;;;;;;5077335;28;20039;-54
2022/03/21 06:30:11;;;;;;;18.10;12.05;;;13.00;62.60;;;;;;5089472;28;20032;-49
2022/03/21 06:32:38;;;;;;;28.98;11.85;;;13.10;62.50;;;;;;5088782;28;20055;-56
2022/03/21 06:35:05;;;;;;;21.85;10.25;;;13.30;62.40;;;;;;5089417;28;20056;-51
2022/03/21 06:37:33;;;;;;;20.38;10.95;;;13.40;62.30;;;;;;5088867;28;20031;-53
2022/03/21 06:40:00;;;;;;;20.67;9.85;;;13.50;62.00;;;;;;5089298;28;20028;-54
2022/03/21 06:42:26;;;;;;;20.30;10.32;;;13.70;61.80;;;;;;5082224;28;20864;-52
2022/03/21 06:44:53;;;;;;;18.15;9.85;;;13.80;61.50;;;;;;5078698;28;20142;-52
2022/03/21 06:47:19;;;;;;;15.00;9.23;;;13.90;61.20;;;;;;5082205;28;20490;-52
2022/03/21 06:49:44;;;;;;;19.75;9.38;;;14.00;61.60;;;;;;5078594;28;20670;-53
2022/03/21 06:52:11;;;;;;;22.90;9.10;;;14.10;61.00;;;;;;5082464;28;20080;-53
2022/03/21 06:54:37;;;;;;;18.20;9.10;;;14.20;60.70;;;;;;5079420;28;20028;-51
2022/03/21 06:57:04;;;;;;;17.27;9.05;;;14.30;60.70;;;;;;5080435;28;20042;-50
2022/03/21 06:59:30;;;;;;;19.85;9.30;;;14.30;60.70;;;;;;5080356;28;20111;-54
2022/03/21 07:01:56;;;;;;;16.38;9.20;;;14.30;60.70;;;;;;5079516;28;20023;-52
2022/03/21 07:04:23;;;;;;;27.63;11.20;;;14.30;60.60;;;;;;5085077;28;20078;-53
2022/03/21 07:06:50;;;;;;;16.80;7.88;;;14.50;60.50;;;;;;5076646;28;20115;-53
2022/03/21 07:09:15;;;;;;;14.38;9.15;;;14.50;60.20;;;;;;5081852;28;20062;-54
2022/03/21 07:11:41;;;;;;;18.95;9.48;;;14.60;60.50;;;;;;5073048;28;20025;-53
2022/03/21 07:14:07;;;;;;;27.10;9.45;;;14.70;60.40;;;;;;5074049;28;20028;-53
2022/03/21 07:16:33;;;;;;;14.95;8.90;;;14.70;60.30;;;;;;5078917;28;20078;-54
2022/03/21 07:18:59;;;;;;;17.23;8.55;;;14.80;60.50;;;;;;5075334;28;20405;-52
2022/03/21 07:21:24;;;;;;;20.23;8.70;;;14.80;60.70;;;;;;5079975;28;20390;-51
2022/03/21 07:23:50;;;;;;;19.60;9.10;;;15.00;61.00;;;;;;5081017;28;20082;-54
2022/03/21 07:26:15;;;;;;;19.92;8.40;;;15.10;60.60;;;;;;5082649;28;20059;-51
2022/03/21 07:28:42;;;;;;;27.80;9.20;;;15.30;60.40;;;;;;5088176;28;20081;-55
2022/03/21 07:31:11;;;;;;;20.55;8.52;;;15.40;59.80;;;;;;5087647;28;20028;-57
2022/03/21 07:33:40;;;;;;;24.58;8.75;;;15.50;59.80;;;;;;5088352;28;20046;-54
2022/03/21 07:36:07;;;;;;;20.50;8.98;;;15.70;59.90;;;;;;5088874;28;20046;-54
2022/03/21 07:38:35;;;;;;;23.35;9.18;;;15.70;60.10;;;;;;5085517;28;20063;-56
2022/03/21 07:41:01;;;;;;;23.70;8.35;;;15.90;60.50;;;;;;5087230;28;20109;-53
2022/03/21 07:43:27;;;;;;;25.55;8.85;;;15.90;60.90;;;;;;5076043;28;20086;-54
2022/03/21 07:48:39;;;;;;;29.10;8.35;;;16.20;61.50;;;;;;5069865;28;20067;-51
2022/03/21 07:51:05;;;;;;;22.77;7.82;;;16.30;61.10;;;;;;5087153;28;20024;-54
2022/03/21 07:53:33;;;;;;;30.30;8.20;;;16.30;61.20;;;;;;5074520;28;20470;-55
2022/03/21 07:56:00;;;;;;;16.80;7.78;;;16.40;60.90;;;;;;5080776;28;20165;-53
2022/03/21 07:58:31;;;;;;;20.85;7.50;;;16.50;61.20;;;;;;5087251;28;20024;-54
2022/03/21 08:00:58;;;;;;;17.80;8.30;;;16.30;61.50;;;;;;5082143;28;20020;-62
2022/03/21 08:03:25;;;;;;;21.25;8.65;;;16.40;61.80;;;;;;5079757;28;20636;-54
2022/03/21 08:05:52;;;;;;;28.08;17.85;;;16.10;61.50;;;;;;5084316;28;20024;-55
2022/03/21 08:08:20;;;;;;;29.27;20.92;;;15.30;58.20;;;;;;5087414;28;20036;-51
2022/03/21 08:10:46;;;;;;;33.53;21.23;;;14.60;59.30;;;;;;5075296;28;20024;-54
2022/03/21 08:13:16;;;;;;;36.20;22.42;;;14.20;59.10;;;;;;5072038;28;20047;-50
2022/03/21 08:15:44;;;;;;;37.95;22.55;;;14.00;59.20;;;;;;5073379;28;20035;-52
2022/03/21 08:18:11;;;;;;;33.42;20.70;;;13.80;59.30;;;;;;5077639;28;20023;-54
2022/03/21 08:20:43;;;;;;;33.75;19.98;;;13.70;59.30;;;;;;5070415;28;20103;-52
2022/03/21 08:23:13;;;;;;;34.65;20.20;;;13.80;59.20;;;;;;5070527;28;20025;-56
2022/03/21 08:25:43;;;;;;;27.65;19.02;;;13.60;59.20;;;;;;5073798;28;20045;-54
2022/03/21 08:28:10;;;;;;;34.70;20.58;;;13.50;59.30;;;;;;5078040;28;20059;-55
2022/03/21 08:30:37;;;;;;;30.95;20.17;;;13.60;59.40;;;;;;5083643;28;20012;-53
2022/03/21 08:33:09;;;;;;;36.53;19.30;;;13.60;59.30;;;;;;5080660;28;20032;-55
2022/03/21 08:35:36;;;;;;;30.05;18.67;;;13.60;59.20;;;;;;5082023;28;20025;-55
2022/03/21 08:38:03;;;;;;;34.28;18.92;;;14.00;59.00;;;;;;5080744;28;20107;-53
2022/03/21 08:40:29;;;;;;;30.42;17.77;;;14.50;58.20;;;;;;5083835;28;20092;-57
2022/03/21 08:42:56;;;;;;;25.02;16.73;;;15.00;57.30;;;;;;5077152;28;20020;-56
2022/03/21 08:45:21;;;;;;;27.77;16.70;;;15.40;57.10;;;;;;5076727;28;20123;-56
2022/03/21 08:47:50;;;;;;;27.60;16.48;;;15.70;56.90;;;;;;5072126;28;20109;-58
2022/03/21 08:50:15;;;;;;;29.17;16.15;;;15.90;56.80;;;;;;5075409;28;20032;-56
2022/03/21 08:52:42;;;;;;;28.67;15.07;;;16.00;57.10;;;;;;5078877;28;20518;-55
2022/03/21 08:55:09;;;;;;;27.77;14.40;;;16.20;57.10;;;;;;5078180;28;20035;-54
2022/03/21 08:57:35;;;;;;;24.80;14.55;;;16.30;57.10;;;;;;5074063;28;20024;-57
2022/03/21 09:00:04;;;;;;;38.63;15.15;;;16.40;57.00;;;;;;5091084;28;20066;-56
2022/03/21 09:02:33;;;;;;;22.17;14.10;;;16.50;57.20;;;;;;5089549;28;20559;-55
2022/03/21 09:04:59;;;;;;;26.10;13.80;;;16.60;57.30;;;;;;5088756;28;20529;-56
2022/03/21 09:07:26;;;;;;;24.25;13.10;;;16.60;56.90;;;;;;5088954;28;20032;-54
2022/03/21 09:09:53;;;;;;;23.95;12.95;;;16.70;57.20;;;;;;5089485;28;20081;-55
2022/03/21 09:12:18;;;;;;;21.20;12.00;;;16.80;57.30;;;;;;5088974;28;20457;-56
2022/03/21 09:14:45;;;;;;;20.65;12.95;;;16.80;57.10;;;;;;5088772;28;20046;-57
2022/03/21 09:17:11;;;;;;;16.85;11.25;;;16.90;57.60;;;;;;5089616;28;20111;-56
2022/03/21 09:19:37;;;;;;;24.77;11.73;;;17.00;58.20;;;;;;5090387;28;20036;-54
2022/03/21 09:22:03;;;;;;;20.15;11.52;;;17.00;57.40;;;;;;5089793;28;20079;-54
2022/03/21 09:24:29;;;;;;;23.42;11.93;;;17.10;57.90;;;;;;5089671;28;20063;-55
2022/03/21 09:26:55;;;;;;;17.67;10.27;;;17.20;57.40;;;;;;5089802;28;20070;-53
2022/03/21 09:29:21;;;;;;;16.45;10.73;;;17.30;57.40;;;;;;5091411;28;20024;-56
2022/03/21 09:31:48;;;;;;;19.08;9.98;;;17.30;57.30;;;;;;5090198;28;20387;-56
2022/03/21 09:34:16;;;;;;;22.85;9.30;;;17.40;57.40;;;;;;5089937;28;20099;-54
2022/03/21 09:36:42;;;;;;;21.88;10.27;;;17.40;57.50;;;;;;5092162;28;20031;-55
2022/03/21 09:39:08;;;;;;;16.90;9.50;;;17.50;57.20;;;;;;5091743;28;20016;-56
2022/03/21 09:41:34;;;;;;;16.88;8.25;;;17.60;57.20;;;;;;5090119;28;20547;-55
2022/03/21 09:44:09;;;;;;;19.63;9.43;;;17.60;57.20;;;;;;5089607;28;20485;-52
2022/03/21 09:46:46;;;;;;;16.55;8.13;;;17.60;57.20;;;;;;5089425;28;20082;-57
2022/03/21 09:49:16;;;;;;;13.52;8.85;;;17.70;57.30;;;;;;5091238;28;20027;-55
2022/03/21 09:51:42;;;;;;;;;;;17.80;57.30;;;;;;5105065;28;20519;-55
2022/03/21 09:54:09;;;;;;;17.75;8.48;;;17.80;57.10;;;;;;5091066;28;19904;-51
2022/03/21 09:56:35;;;;;;;14.55;8.18;;;17.90;57.20;;;;;;5089228;28;20030;-54
2022/03/21 09:59:01;;;;;;;17.10;7.72;;;17.90;57.10;;;;;;5091929;28;20107;-57
2022/03/21 10:01:31;;;;;;;12.55;7.35;;;18.00;57.10;;;;;;5088678;28;20031;-51
2022/03/21 10:03:58;;;;;;;12.77;7.43;;;18.00;57.10;;;;;;5096388;28;20051;-54
2022/03/21 10:06:44;;;;;;;13.88;7.60;;;18.10;57.10;;;;;;5099742;27;20034;-54
2022/03/21 10:09:16;;;;;;;13.43;7.38;;;18.10;57.10;;;;;;5098480;28;20028;-52
2022/03/21 10:11:49;;;;;;;14.43;7.53;;;18.20;57.00;;;;;;5103793;28;20118;-55
2022/03/21 10:14:34;;;;;;;10.95;7.13;;;18.30;56.90;;;;;;5091721;28;20023;-54
2022/03/21 10:17:01;;;;;;;10.20;6.13;;;18.30;56.90;;;;;;5102698;28;20073;-53
2022/03/21 10:19:43;;;;;;;12.40;6.53;;;18.40;56.90;;;;;;5095839;28;20018;-55
2022/03/21 10:22:11;;;;;;;15.73;6.78;;;18.40;56.80;;;;;;5092665;28;20024;-53
2022/03/21 10:24:42;;;;;;;13.50;5.82;;;18.50;56.90;;;;;;5088980;28;20043;-54
2022/03/21 10:27:27;;;;;;;10.95;6.82;;;18.50;56.80;;;;;;5088493;28;20135;-53
2022/03/21 10:29:59;;;;;;;13.45;5.93;;;18.50;56.70;;;;;;5088920;28;20020;-51
2022/03/21 10:32:54;;;;;;;9.77;5.88;;;18.60;56.60;;;;;;5088316;28;20105;-51
2022/03/21 10:35:26;;;;;;;11.20;5.70;;;18.60;56.60;;;;;;5084513;28;20157;-54
2022/03/21 10:37:59;;;;;;;12.35;6.15;;;18.70;56.60;;;;;;5087802;28;20023;-55
2022/03/21 10:40:30;;;;;;;10.20;5.80;;;18.80;56.70;;;;;;5088097;28;20099;-55
2022/03/21 10:43:07;;;;;;;11.82;5.68;;;18.80;56.90;;;;;;5088207;28;20031;-52
2022/03/21 10:45:49;;;;;;;12.27;5.72;;;18.90;57.00;;;;;;5088056;28;20116;-57
2022/03/21 10:48:22;;;;;;;11.32;5.55;;;18.90;57.00;;;;;;5085595;28;20035;-53
2022/03/21 10:50:50;;;;;;;8.57;5.55;;;19.00;57.10;;;;;;5093639;28;20507;-56
2022/03/21 10:53:17;;;;;;;10.18;6.03;;;19.10;57.00;;;;;;5086250;28;20028;-53
2022/03/21 10:55:45;;;;;;;10.40;5.55;;;19.20;56.80;;;;;;5087946;28;20020;-55
2022/03/21 10:58:14;;;;;;;11.25;5.85;;;19.20;56.70;;;;;;5096049;28;20023;-51
2022/03/21 11:00:40;;;;;;;8.47;5.97;;;19.40;56.60;;;;;;5093566;28;20020;-51
2022/03/21 11:03:15;;;;;;;9.30;5.78;;;19.50;56.30;;;;;;5086634;28;20051;-51
2022/03/21 11:05:48;;;;;;;14.20;5.53;;;19.50;55.80;;;;;;5092074;28;20655;-50
2022/03/21 11:08:16;;;;;;;9.77;5.55;;;19.50;55.70;;;;;;5087648;28;20456;-54
2022/03/21 11:10:43;;;;;;;11.65;6.35;;;19.50;56.90;;;;;;5096213;28;20106;-56
2022/03/21 11:13:09;;;;;;;11.23;4.47;;;19.50;56.30;;;;;;5087608;28;20016;-55
2022/03/21 11:15:37;;;;;;;8.88;4.90;;;19.60;56.40;;;;;;5089133;28;20693;-54
2022/03/21 11:18:04;;;;;;;9.25;5.28;;;19.60;56.30;;;;;;5087374;28;20016;-55
2022/03/21 11:20:31;;;;;;;13.30;5.50;;;19.70;56.20;;;;;;5087408;28;20023;-56
2022/03/21 11:22:58;;;;;;;9.13;4.82;;;19.80;56.20;;;;;;5099225;28;20431;-56
2022/03/21 11:25:27;;;;;;;8.75;4.50;;;19.80;56.00;;;;;;5103614;28;20108;-53
2022/03/21 11:27:59;;;;;;;;;;;19.90;56.00;;;;;;5087559;28;20093;-53
2022/03/21 11:30:30;;;;;;;9.77;5.10;;;19.90;55.90;;;;;;5087382;28;19904;-50
2022/03/21 11:33:21;;;;;;;9.00;4.30;;;20.00;55.70;;;;;;5090156;28;20035;-55
2022/03/21 11:35:58;;;;;;;7.80;4.90;;;20.10;55.70;;;;;;5079322;28;20035;-55
2022/03/21 11:38:27;;;;;;;12.73;5.55;;;20.20;55.40;;;;;;5086894;28;20035;-53
2022/03/21 11:41:10;;;;;;;8.13;4.65;;;20.30;55.30;;;;;;5087400;28;20565;-51
2022/03/21 11:43:38;;;;;;;6.72;3.90;;;20.40;55.10;;;;;;5087017;28;20153;-53
2022/03/21 11:46:27;;;;;;;7.95;4.70;;;20.60;55.00;;;;;;5095663;28;20034;-50
2022/03/21 11:48:53;;;;;;;7.97;4.32;;;20.80;54.70;;;;;;5082655;28;20032;-49
2022/03/21 11:51:19;;;;;;;8.90;4.70;;;20.90;54.40;;;;;;5088999;28;20017;-52
2022/03/21 11:53:54;;;;;;;8.68;5.00;;;21.00;54.20;;;;;;5091480;28;20020;-54
2022/03/21 11:56:47;;;;;;;10.48;5.03;;;21.10;54.00;;;;;;5097784;28;20020;-52
2022/03/21 11:59:32;;;;;;;9.73;4.38;;;21.20;53.40;;;;;;5087084;28;20039;-53
2022/03/21 12:01:59;;;;;;;8.52;4.90;;;21.30;53.50;;;;;;5097714;28;20020;-53
2022/03/21 12:04:24;;;;;;;9.98;4.10;;;21.40;53.30;;;;;;5097819;28;20529;-51
2022/03/21 12:06:51;;;;;;;12.27;4.93;;;21.50;53.30;;;;;;5105750;28;20096;-55
2022/03/21 12:09:16;;;;;;;6.97;4.47;;;21.50;53.20;;;;;;5091708;28;20382;-52
2022/03/21 12:11:46;;;;;;;7.47;4.45;;;21.50;53.20;;;;;;5096337;28;20030;-53
2022/03/21 12:14:19;;;;;;;;;;;21.50;53.20;;;;;;5103356;28;20031;-53
2022/03/21 12:16:45;;;;;;;9.15;5.13;;;21.60;53.30;;;;;;5105023;28;20003;-55
2022/03/21 12:19:14;;;;;;;10.82;4.70;;;21.60;53.40;;;;;;5092731;28;20460;-53
2022/03/21 12:21:39;;;;;;;8.63;4.28;;;21.60;53.20;;;;;;5090539;28;20142;-53
2022/03/21 12:24:16;;;;;;;8.00;4.88;;;21.60;53.30;;;;;;5090168;28;20453;-53
2022/03/21 12:26:53;;;;;;;7.38;4.65;;;21.60;53.40;;;;;;5088336;28;20769;-55
2022/03/21 12:29:32;;;;;;;8.05;3.97;;;21.50;53.50;;;;;;5097371;28;20036;-55
2022/03/21 12:32:24;;;;;;;6.93;3.87;;;21.50;53.40;;;;;;5099381;28;20068;-53
2022/03/21 12:34:51;;;;;;;11.43;4.20;;;21.60;53.60;;;;;;5094547;28;20334;-53
2022/03/21 12:37:36;;;;;;;9.70;4.28;;;21.60;53.20;;;;;;5092439;28;20028;-54
2022/03/21 12:40:01;;;;;;;8.20;4.03;;;21.90;52.80;;;;;;5101177;28;20024;-55
2022/03/21 12:42:28;;;;;;;8.27;4.35;;;22.40;51.80;;;;;;5102496;28;20028;-53
2022/03/21 12:44:55;;;;;;;8.73;4.70;;;22.60;51.70;;;;;;5095142;28;20132;-55
2022/03/21 12:47:21;;;;;;;6.97;4.32;;;22.30;51.90;;;;;;5093202;28;20047;-54
2022/03/21 12:49:51;;;;;;;8.25;4.00;;;21.90;52.60;;;;;;5098499;28;20024;-53
2022/03/21 12:52:31;;;;;;;6.95;4.03;;;21.70;53.30;;;;;;5090617;28;20038;-53
2022/03/21 12:54:58;;;;;;;7.65;4.32;;;21.50;53.50;;;;;;5090338;28;20530;-52
2022/03/21 12:57:24;;;;;;;7.47;4.18;;;21.40;54.00;;;;;;5090023;28;20016;-54